sensor_id;sensor_type;location;lat;lon;timestamp;P1;durP1;ratioP1;P2;durP2;ratioP2
43809;SDS011;29440;48.208;11.162;2024-02-14T00:01:07;6.03;;;3.00;;
43809;SDS011;29440;48.208;11.162;2024-02-14T00:03:34;8.85;;;3.20;;
43809;SDS011;29440;48.208;11.162;2024-02-14T00:06:00;7.07;;;3.13;;
43809;SDS011;29440;48.208;11.162;2024-02-14T00:08:25;7.65;;;3.00;;
43809;SDS011;29440;48.208;11.162;2024-02-14T00:10:51;7.15;;;3.67;;
43809;SDS011;29440;48.208;11.162;2024-02-14T00:13:16;5.78;;;3.45;;
43809;SDS011;29440;48.208;11.162;2024-02-14T00:15:45;8.75;;;3.33;;
43809;SDS011;29440;48.208;11.162;2024-02-14T00:18:11;5.60;;;2.80;;
43809;SDS011;29440;48.208;11.162;2024-02-14T00:20:37;6.00;;;3.00;;
43809;SDS011;29440;48.208;11.162;2024-02-14T00:23:04;6.85;;;2.90;;
43809;SDS011;29440;48.208;11.162;2024-02-14T00:25:29;5.55;;;2.50;;
43809;SDS011;29440;48.208;11.162;2024-02-14T00:27:59;4.97;;;2.30;;
43809;SDS011;29440;48.208;11.162;2024-02-14T00:30:26;5.40;;;2.08;;
43809;SDS011;29440;48.208;11.162;2024-02-14T00:32:51;3.65;;;1.98;;
43809;SDS011;29440;48.208;11.162;2024-02-14T00:35:17;6.25;;;2.05;;
43809;SDS011;29440;48.208;11.162;2024-02-14T00:37:42;3.47;;;1.52;;
43809;SDS011;29440;48.208;11.162;2024-02-14T00:40:08;4.18;;;1.45;;
43809;SDS011;29440;48.208;11.162;2024-02-14T00:42:35;3.60;;;1.50;;
43809;SDS011;29440;48.208;11.162;2024-02-14T00:45:01;3.40;;;1.40;;
43809;SDS011;29440;48.208;11.162;2024-02-14T00:47:28;2.08;;;1.20;;
43809;SDS011;29440;48.208;11.162;2024-02-14T00:49:53;2.08;;;1.10;;
43809;SDS011;29440;48.208;11.162;2024-02-14T00:52:19;4.15;;;1.50;;
43809;SDS011;29440;48.208;11.162;2024-02-14T00:54:46;4.40;;;1.27;;
43809;SDS011;29440;48.208;11.162;2024-02-14T00:57:12;2.35;;;1.30;;
43809;SDS011;29440;48.208;11.162;2024-02-14T00:59:38;3.03;;;1.20;;
43809;SDS011;29440;48.208;11.162;2024-02-14T01:02:04;3.95;;;0.98;;
43809;SDS011;29440;48.208;11.162;2024-02-14T01:04:30;2.42;;;1.38;;
43809;SDS011;29440;48.208;11.162;2024-02-14T01:06:55;2.78;;;1.20;;
43809;SDS011;29440;48.208;11.162;2024-02-14T01:09:21;2.45;;;1.10;;
43809;SDS011;29440;48.208;11.162;2024-02-14T01:11:47;2.95;;;1.10;;
43809;SDS011;29440;48.208;11.162;2024-02-14T01:14:13;5.10;;;1.52;;
43809;SDS011;29440;48.208;11.162;2024-02-14T01:16:43;3.60;;;1.00;;
43809;SDS011;29440;48.208;11.162;2024-02-14T01:19:12;4.85;;;1.23;;
43809;SDS011;29440;48.208;11.162;2024-02-14T01:21:38;3.28;;;1.50;;
43809;SDS011;29440;48.208;11.162;2024-02-14T01:24:04;3.63;;;1.15;;
43809;SDS011;29440;48.208;11.162;2024-02-14T01:26:30;2.58;;;1.00;;
43809;SDS011;29440;48.208;11.162;2024-02-14T01:28:57;4.10;;;1.08;;
43809;SDS011;29440;48.208;11.162;2024-02-14T01:31:22;2.45;;;1.00;;
43809;SDS011;29440;48.208;11.162;2024-02-14T01:33:48;5.20;;;1.55;;
43809;SDS011;29440;48.208;11.162;2024-02-14T01:36:14;2.58;;;1.17;;
43809;SDS011;29440;48.208;11.162;2024-02-14T01:38:39;1.90;;;1.05;;
43809;SDS011;29440;48.208;11.162;2024-02-14T01:41:05;2.92;;;1.00;;
43809;SDS011;29440;48.208;11.162;2024-02-14T01:43:37;3.70;;;1.02;;
43809;SDS011;29440;48.208;11.162;2024-02-14T01:46:05;2.03;;;1.17;;
43809;SDS011;29440;48.208;11.162;2024-02-14T01:48:33;4.20;;;1.42;;
43809;SDS011;29440;48.208;11.162;2024-02-14T01:50:59;3.63;;;1.40;;
43809;SDS011;29440;48.208;11.162;2024-02-14T01:53:26;2.90;;;1.52;;
43809;SDS011;29440;48.208;11.162;2024-02-14T01:55:55;3.03;;;1.50;;
43809;SDS011;29440;48.208;11.162;2024-02-14T01:58:21;4.00;;;1.40;;
43809;SDS011;29440;48.208;11.162;2024-02-14T02:00:48;5.18;;;1.25;;
43809;SDS011;29440;48.208;11.162;2024-02-14T02:03:14;3.15;;;1.30;;
43809;SDS011;29440;48.208;11.162;2024-02-14T02:05:40;2.22;;;1.00;;
43809;SDS011;29440;48.208;11.162;2024-02-14T02:08:07;3.58;;;1.15;;
43809;SDS011;29440;48.208;11.162;2024-02-14T02:10:34;3.40;;;1.20;;
43809;SDS011;29440;48.208;11.162;2024-02-14T02:13:00;3.42;;;0.90;;
43809;SDS011;29440;48.208;11.162;2024-02-14T02:15:26;3.53;;;1.13;;
43809;SDS011;29440;48.208;11.162;2024-02-14T02:17:53;2.47;;;0.93;;
43809;SDS011;29440;48.208;11.162;2024-02-14T02:20:19;2.78;;;1.08;;
43809;SDS011;29440;48.208;11.162;2024-02-14T02:22:48;5.20;;;1.08;;
43809;SDS011;29440;48.208;11.162;2024-02-14T02:25:14;2.92;;;1.10;;
43809;SDS011;29440;48.208;11.162;2024-02-14T02:27:39;2.70;;;0.80;;
43809;SDS011;29440;48.208;11.162;2024-02-14T02:30:05;2.42;;;1.10;;
43809;SDS011;29440;48.208;11.162;2024-02-14T02:32:31;1.20;;;0.70;;
43809;SDS011;29440;48.208;11.162;2024-02-14T02:34:57;2.67;;;1.10;;
43809;SDS011;29440;48.208;11.162;2024-02-14T02:37:23;2.53;;;0.75;;
43809;SDS011;29440;48.208;11.162;2024-02-14T02:39:50;2.03;;;1.05;;
43809;SDS011;29440;48.208;11.162;2024-02-14T02:42:16;3.10;;;0.85;;
43809;SDS011;29440;48.208;11.162;2024-02-14T02:44:45;4.40;;;1.00;;
43809;SDS011;29440;48.208;11.162;2024-02-14T02:47:11;2.63;;;0.90;;
43809;SDS011;29440;48.208;11.162;2024-02-14T02:49:37;2.58;;;1.00;;
43809;SDS011;29440;48.208;11.162;2024-02-14T02:52:03;4.05;;;0.90;;
43809;SDS011;29440;48.208;11.162;2024-02-14T02:54:29;6.07;;;1.30;;
43809;SDS011;29440;48.208;11.162;2024-02-14T02:56:54;1.58;;;0.68;;
43809;SDS011;29440;48.208;11.162;2024-02-14T02:59:20;2.72;;;1.02;;
43809;SDS011;29440;48.208;11.162;2024-02-14T03:01:50;3.20;;;0.70;;
43809;SDS011;29440;48.208;11.162;2024-02-14T03:04:15;2.20;;;1.00;;
43809;SDS011;29440;48.208;11.162;2024-02-14T03:06:45;2.75;;;0.95;;
43809;SDS011;29440;48.208;11.162;2024-02-14T03:09:12;2.88;;;0.93;;
43809;SDS011;29440;48.208;11.162;2024-02-14T03:11:40;1.65;;;0.80;;
43809;SDS011;29440;48.208;11.162;2024-02-14T03:14:05;1.52;;;0.60;;
43809;SDS011;29440;48.208;11.162;2024-02-14T03:16:32;3.65;;;0.80;;
43809;SDS011;29440;48.208;11.162;2024-02-14T03:18:58;2.25;;;0.93;;
43809;SDS011;29440;48.208;11.162;2024-02-14T03:21:24;3.13;;;0.85;;
43809;SDS011;29440;48.208;11.162;2024-02-14T03:23:50;2.25;;;0.80;;
43809;SDS011;29440;48.208;11.162;2024-02-14T03:26:15;4.15;;;0.80;;
43809;SDS011;29440;48.208;11.162;2024-02-14T03:28:41;4.03;;;0.80;;
43809;SDS011;29440;48.208;11.162;2024-02-14T03:31:07;2.60;;;0.80;;
43809;SDS011;29440;48.208;11.162;2024-02-14T03:33:32;3.53;;;0.80;;
43809;SDS011;29440;48.208;11.162;2024-02-14T03:35:58;2.30;;;0.80;;
43809;SDS011;29440;48.208;11.162;2024-02-14T03:38:25;1.80;;;0.75;;
43809;SDS011;29440;48.208;11.162;2024-02-14T03:40:54;2.63;;;0.95;;
43809;SDS011;29440;48.208;11.162;2024-02-14T03:43:19;2.05;;;0.73;;
43809;SDS011;29440;48.208;11.162;2024-02-14T03:45:46;1.90;;;0.77;;
43809;SDS011;29440;48.208;11.162;2024-02-14T03:48:12;1.45;;;0.60;;
43809;SDS011;29440;48.208;11.162;2024-02-14T03:50:38;2.13;;;0.80;;
43809;SDS011;29440;48.208;11.162;2024-02-14T03:53:04;1.98;;;0.60;;
43809;SDS011;29440;48.208;11.162;2024-02-14T03:55:30;2.05;;;0.70;;
43809;SDS011;29440;48.208;11.162;2024-02-14T03:57:56;1.90;;;0.50;;
43809;SDS011;29440;48.208;11.162;2024-02-14T04:00:22;1.08;;;0.60;;
43809;SDS011;29440;48.208;11.162;2024-02-14T04:02:47;1.75;;;0.70;;
43809;SDS011;29440;48.208;11.162;2024-02-14T04:05:14;1.55;;;0.77;;
43809;SDS011;29440;48.208;11.162;2024-02-14T04:07:41;1.98;;;0.60;;
43809;SDS011;29440;48.208;11.162;2024-02-14T04:10:09;1.77;;;0.60;;
43809;SDS011;29440;48.208;11.162;2024-02-14T04:12:35;3.13;;;0.70;;
43809;SDS011;29440;48.208;11.162;2024-02-14T04:15:00;4.50;;;0.60;;
43809;SDS011;29440;48.208;11.162;2024-02-14T04:17:26;1.10;;;0.60;;
43809;SDS011;29440;48.208;11.162;2024-02-14T04:19:52;1.08;;;0.50;;
43809;SDS011;29440;48.208;11.162;2024-02-14T04:22:18;2.58;;;0.60;;
43809;SDS011;29440;48.208;11.162;2024-02-14T04:24:44;1.52;;;0.80;;
43809;SDS011;29440;48.208;11.162;2024-02-14T04:27:09;1.60;;;0.70;;
43809;SDS011;29440;48.208;11.162;2024-02-14T04:29:35;2.28;;;0.63;;
43809;SDS011;29440;48.208;11.162;2024-02-14T04:32:01;2.25;;;0.70;;
43809;SDS011;29440;48.208;11.162;2024-02-14T04:34:27;1.52;;;0.70;;
43809;SDS011;29440;48.208;11.162;2024-02-14T04:36:54;1.23;;;0.50;;
43809;SDS011;29440;48.208;11.162;2024-02-14T04:39:21;1.40;;;0.70;;
43809;SDS011;29440;48.208;11.162;2024-02-14T04:41:47;1.92;;;0.70;;
43809;SDS011;29440;48.208;11.162;2024-02-14T04:44:15;2.53;;;0.68;;
43809;SDS011;29440;48.208;11.162;2024-02-14T04:46:40;2.13;;;0.68;;
43809;SDS011;29440;48.208;11.162;2024-02-14T04:49:08;1.42;;;0.40;;
43809;SDS011;29440;48.208;11.162;2024-02-14T04:51:34;3.17;;;0.77;;
43809;SDS011;29440;48.208;11.162;2024-02-14T04:54:00;2.45;;;0.60;;
43809;SDS011;29440;48.208;11.162;2024-02-14T04:56:26;2.33;;;1.10;;
43809;SDS011;29440;48.208;11.162;2024-02-14T04:58:53;1.85;;;0.70;;
43809;SDS011;29440;48.208;11.162;2024-02-14T05:01:20;1.70;;;0.70;;
43809;SDS011;29440;48.208;11.162;2024-02-14T05:03:45;1.23;;;0.60;;
43809;SDS011;29440;48.208;11.162;2024-02-14T05:06:11;2.15;;;0.60;;
43809;SDS011;29440;48.208;11.162;2024-02-14T05:08:37;1.35;;;0.60;;
43809;SDS011;29440;48.208;11.162;2024-02-14T05:11:03;3.80;;;1.10;;
43809;SDS011;29440;48.208;11.162;2024-02-14T05:13:29;3.95;;;0.63;;
43809;SDS011;29440;48.208;11.162;2024-02-14T05:15:55;0.90;;;0.50;;
43809;SDS011;29440;48.208;11.162;2024-02-14T05:18:23;3.45;;;0.77;;
43809;SDS011;29440;48.208;11.162;2024-02-14T05:20:49;0.80;;;0.60;;
43809;SDS011;29440;48.208;11.162;2024-02-14T05:23:16;1.42;;;0.68;;
43809;SDS011;29440;48.208;11.162;2024-02-14T05:25:54;2.25;;;0.60;;
43809;SDS011;29440;48.208;11.162;2024-02-14T05:28:23;3.10;;;0.80;;
43809;SDS011;29440;48.208;11.162;2024-02-14T05:30:49;3.70;;;0.90;;
43809;SDS011;29440;48.208;11.162;2024-02-14T05:33:15;1.50;;;0.60;;
43809;SDS011;29440;48.208;11.162;2024-02-14T05:35:41;1.30;;;0.80;;
43809;SDS011;29440;48.208;11.162;2024-02-14T05:38:06;4.40;;;0.80;;
43809;SDS011;29440;48.208;11.162;2024-02-14T05:40:33;1.40;;;0.63;;
43809;SDS011;29440;48.208;11.162;2024-02-14T05:42:59;1.98;;;0.60;;
43809;SDS011;29440;48.208;11.162;2024-02-14T05:45:25;2.47;;;0.77;;
43809;SDS011;29440;48.208;11.162;2024-02-14T05:47:53;4.00;;;0.70;;
43809;SDS011;29440;48.208;11.162;2024-02-14T05:50:19;1.50;;;0.50;;
43809;SDS011;29440;48.208;11.162;2024-02-14T05:52:47;1.40;;;0.60;;
43809;SDS011;29440;48.208;11.162;2024-02-14T05:55:13;1.42;;;0.60;;
43809;SDS011;29440;48.208;11.162;2024-02-14T05:57:40;5.82;;;0.73;;
43809;SDS011;29440;48.208;11.162;2024-02-14T06:00:06;0.88;;;0.50;;
43809;SDS011;29440;48.208;11.162;2024-02-14T06:02:34;2.10;;;0.60;;
43809;SDS011;29440;48.208;11.162;2024-02-14T06:05:00;1.00;;;0.52;;
43809;SDS011;29440;48.208;11.162;2024-02-14T06:07:26;1.52;;;0.50;;
43809;SDS011;29440;48.208;11.162;2024-02-14T06:09:51;1.35;;;0.57;;
43809;SDS011;29440;48.208;11.162;2024-02-14T06:12:19;2.70;;;0.68;;
43809;SDS011;29440;48.208;11.162;2024-02-14T06:14:47;6.35;;;0.75;;
43809;SDS011;29440;48.208;11.162;2024-02-14T06:17:14;1.40;;;0.68;;
43809;SDS011;29440;48.208;11.162;2024-02-14T06:19:41;2.08;;;0.80;;
43809;SDS011;29440;48.208;11.162;2024-02-14T06:22:07;2.03;;;0.90;;
43809;SDS011;29440;48.208;11.162;2024-02-14T06:24:32;1.92;;;0.80;;
43809;SDS011;29440;48.208;11.162;2024-02-14T06:26:58;2.13;;;0.93;;
43809;SDS011;29440;48.208;11.162;2024-02-14T06:29:23;2.10;;;0.90;;
43809;SDS011;29440;48.208;11.162;2024-02-14T06:31:58;2.75;;;1.00;;
43809;SDS011;29440;48.208;11.162;2024-02-14T06:34:24;3.65;;;0.52;;
43809;SDS011;29440;48.208;11.162;2024-02-14T06:36:51;5.82;;;0.73;;
43809;SDS011;29440;48.208;11.162;2024-02-14T06:39:16;2.20;;;0.70;;
43809;SDS011;29440;48.208;11.162;2024-02-14T06:41:42;5.60;;;1.35;;
43809;SDS011;29440;48.208;11.162;2024-02-14T06:44:10;2.15;;;1.17;;
43809;SDS011;29440;48.208;11.162;2024-02-14T06:46:35;5.72;;;1.80;;
43809;SDS011;29440;48.208;11.162;2024-02-14T06:49:03;3.20;;;1.67;;
43809;SDS011;29440;48.208;11.162;2024-02-14T06:51:28;6.03;;;1.27;;
43809;SDS011;29440;48.208;11.162;2024-02-14T06:53:57;2.65;;;1.02;;
43809;SDS011;29440;48.208;11.162;2024-02-14T06:56:22;2.35;;;0.80;;
43809;SDS011;29440;48.208;11.162;2024-02-14T06:58:48;2.55;;;1.00;;
43809;SDS011;29440;48.208;11.162;2024-02-14T07:01:18;2.55;;;1.20;;
43809;SDS011;29440;48.208;11.162;2024-02-14T07:03:47;4.40;;;1.20;;
43809;SDS011;29440;48.208;11.162;2024-02-14T07:06:13;3.22;;;1.30;;
43809;SDS011;29440;48.208;11.162;2024-02-14T07:08:42;5.00;;;1.13;;
43809;SDS011;29440;48.208;11.162;2024-02-14T07:11:08;5.65;;;1.23;;
43809;SDS011;29440;48.208;11.162;2024-02-14T07:13:34;3.80;;;1.00;;
43809;SDS011;29440;48.208;11.162;2024-02-14T07:15:59;2.83;;;0.95;;
43809;SDS011;29440;48.208;11.162;2024-02-14T07:18:27;4.82;;;1.40;;
43809;SDS011;29440;48.208;11.162;2024-02-14T07:20:53;6.18;;;2.78;;
43809;SDS011;29440;48.208;11.162;2024-02-14T07:25:51;8.68;;;2.85;;
43809;SDS011;29440;48.208;11.162;2024-02-14T07:28:16;10.13;;;2.72;;
43809;SDS011;29440;48.208;11.162;2024-02-14T07:30:42;9.32;;;3.05;;
43809;SDS011;29440;48.208;11.162;2024-02-14T07:33:08;9.38;;;3.30;;
43809;SDS011;29440;48.208;11.162;2024-02-14T07:35:36;10.02;;;3.03;;
43809;SDS011;29440;48.208;11.162;2024-02-14T07:38:02;15.77;;;4.40;;
43809;SDS011;29440;48.208;11.162;2024-02-14T07:40:27;23.73;;;5.85;;
43809;SDS011;29440;48.208;11.162;2024-02-14T07:42:55;8.85;;;2.63;;
43809;SDS011;29440;48.208;11.162;2024-02-14T07:45:21;5.78;;;1.88;;
43809;SDS011;29440;48.208;11.162;2024-02-14T07:47:49;2.55;;;0.80;;
43809;SDS011;29440;48.208;11.162;2024-02-14T07:50:15;4.70;;;0.90;;
43809;SDS011;29440;48.208;11.162;2024-02-14T07:52:41;2.75;;;0.70;;
43809;SDS011;29440;48.208;11.162;2024-02-14T07:55:08;2.25;;;0.73;;
43809;SDS011;29440;48.208;11.162;2024-02-14T07:57:37;4.80;;;1.10;;
43809;SDS011;29440;48.208;11.162;2024-02-14T08:00:04;5.80;;;1.20;;
43809;SDS011;29440;48.208;11.162;2024-02-14T08:02:33;2.80;;;0.70;;
43809;SDS011;29440;48.208;11.162;2024-02-14T08:04:59;2.78;;;0.80;;
43809;SDS011;29440;48.208;11.162;2024-02-14T08:07:24;2.25;;;0.73;;
43809;SDS011;29440;48.208;11.162;2024-02-14T08:09:50;3.03;;;0.75;;
43809;SDS011;29440;48.208;11.162;2024-02-14T08:12:16;3.15;;;0.90;;
43809;SDS011;29440;48.208;11.162;2024-02-14T08:14:41;1.95;;;0.52;;
43809;SDS011;29440;48.208;11.162;2024-02-14T08:17:07;3.40;;;0.70;;
43809;SDS011;29440;48.208;11.162;2024-02-14T08:19:33;3.28;;;0.85;;
43809;SDS011;29440;48.208;11.162;2024-02-14T08:21:59;2.13;;;0.60;;
43809;SDS011;29440;48.208;11.162;2024-02-14T08:24:26;2.22;;;0.82;;
43809;SDS011;29440;48.208;11.162;2024-02-14T08:26:52;4.40;;;0.77;;
43809;SDS011;29440;48.208;11.162;2024-02-14T08:29:18;3.97;;;0.80;;
43809;SDS011;29440;48.208;11.162;2024-02-14T08:31:44;1.70;;;0.90;;
43809;SDS011;29440;48.208;11.162;2024-02-14T08:34:09;3.25;;;0.80;;
43809;SDS011;29440;48.208;11.162;2024-02-14T08:36:35;3.55;;;0.63;;
43809;SDS011;29440;48.208;11.162;2024-02-14T08:39:06;1.50;;;0.52;;
43809;SDS011;29440;48.208;11.162;2024-02-14T08:41:38;1.23;;;0.50;;
43809;SDS011;29440;48.208;11.162;2024-02-14T08:44:06;3.72;;;0.90;;
43809;SDS011;29440;48.208;11.162;2024-02-14T08:46:31;4.05;;;0.70;;
43809;SDS011;29440;48.208;11.162;2024-02-14T08:48:59;2.33;;;0.60;;
43809;SDS011;29440;48.208;11.162;2024-02-14T08:51:27;2.45;;;0.60;;
43809;SDS011;29440;48.208;11.162;2024-02-14T08:53:53;1.17;;;0.50;;
43809;SDS011;29440;48.208;11.162;2024-02-14T08:56:20;2.63;;;0.70;;
43809;SDS011;29440;48.208;11.162;2024-02-14T08:58:47;1.27;;;0.40;;
43809;SDS011;29440;48.208;11.162;2024-02-14T09:01:13;2.22;;;0.40;;
43809;SDS011;29440;48.208;11.162;2024-02-14T09:03:39;1.23;;;0.50;;
43809;SDS011;29440;48.208;11.162;2024-02-14T09:06:08;2.38;;;0.60;;
43809;SDS011;29440;48.208;11.162;2024-02-14T09:08:33;3.15;;;0.52;;
43809;SDS011;29440;48.208;11.162;2024-02-14T09:10:59;2.60;;;0.60;;
43809;SDS011;29440;48.208;11.162;2024-02-14T09:13:24;1.13;;;0.50;;
43809;SDS011;29440;48.208;11.162;2024-02-14T09:15:50;2.80;;;0.70;;
43809;SDS011;29440;48.208;11.162;2024-02-14T09:18:18;1.55;;;0.60;;
43809;SDS011;29440;48.208;11.162;2024-02-14T09:20:44;1.15;;;0.50;;
43809;SDS011;29440;48.208;11.162;2024-02-14T09:23:11;3.42;;;0.43;;
43809;SDS011;29440;48.208;11.162;2024-02-14T09:25:38;2.45;;;0.50;;
43809;SDS011;29440;48.208;11.162;2024-02-14T09:28:04;2.85;;;0.70;;
43809;SDS011;29440;48.208;11.162;2024-02-14T09:30:31;2.90;;;0.50;;
43809;SDS011;29440;48.208;11.162;2024-02-14T09:32:59;1.00;;;0.40;;
43809;SDS011;29440;48.208;11.162;2024-02-14T09:35:24;0.75;;;0.40;;
43809;SDS011;29440;48.208;11.162;2024-02-14T09:37:50;0.93;;;0.45;;
43809;SDS011;29440;48.208;11.162;2024-02-14T09:40:16;1.98;;;0.43;;
43809;SDS011;29440;48.208;11.162;2024-02-14T09:45:18;0.93;;;0.50;;
43809;SDS011;29440;48.208;11.162;2024-02-14T09:47:44;1.42;;;0.57;;
43809;SDS011;29440;48.208;11.162;2024-02-14T09:50:11;3.95;;;0.50;;
43809;SDS011;29440;48.208;11.162;2024-02-14T09:52:38;3.53;;;0.50;;
43809;SDS011;29440;48.208;11.162;2024-02-14T09:55:03;2.05;;;0.50;;
43809;SDS011;29440;48.208;11.162;2024-02-14T09:57:31;1.17;;;0.55;;
43809;SDS011;29440;48.208;11.162;2024-02-14T10:00:03;3.00;;;0.40;;
43809;SDS011;29440;48.208;11.162;2024-02-14T10:02:30;0.80;;;0.40;;
43809;SDS011;29440;48.208;11.162;2024-02-14T10:04:56;1.35;;;0.55;;
43809;SDS011;29440;48.208;11.162;2024-02-14T10:07:25;2.03;;;0.77;;
43809;SDS011;29440;48.208;11.162;2024-02-14T10:09:51;1.45;;;0.63;;
43809;SDS011;29440;48.208;11.162;2024-02-14T10:12:19;1.40;;;0.43;;
43809;SDS011;29440;48.208;11.162;2024-02-14T10:17:18;0.45;;;0.38;;
43809;SDS011;29440;48.208;11.162;2024-02-14T10:19:54;2.22;;;0.45;;
43809;SDS011;29440;48.208;11.162;2024-02-14T10:22:21;2.25;;;0.70;;
43809;SDS011;29440;48.208;11.162;2024-02-14T10:24:46;6.45;;;0.47;;
43809;SDS011;29440;48.208;11.162;2024-02-14T10:27:12;2.00;;;0.50;;
43809;SDS011;29440;48.208;11.162;2024-02-14T10:29:40;0.93;;;0.50;;
43809;SDS011;29440;48.208;11.162;2024-02-14T10:32:05;1.30;;;0.40;;
43809;SDS011;29440;48.208;11.162;2024-02-14T10:34:31;0.75;;;0.40;;
43809;SDS011;29440;48.208;11.162;2024-02-14T10:36:58;1.85;;;0.40;;
43809;SDS011;29440;48.208;11.162;2024-02-14T10:39:25;1.33;;;0.50;;
43809;SDS011;29440;48.208;11.162;2024-02-14T10:41:51;0.95;;;0.40;;
43809;SDS011;29440;48.208;11.162;2024-02-14T10:44:17;1.63;;;0.40;;
43809;SDS011;29440;48.208;11.162;2024-02-14T10:46:44;0.80;;;0.32;;
43809;SDS011;29440;48.208;11.162;2024-02-14T10:49:11;1.10;;;0.30;;
43809;SDS011;29440;48.208;11.162;2024-02-14T10:51:41;1.10;;;0.40;;
43809;SDS011;29440;48.208;11.162;2024-02-14T10:54:09;2.05;;;0.40;;
43809;SDS011;29440;48.208;11.162;2024-02-14T10:56:41;0.68;;;0.30;;
43809;SDS011;29440;48.208;11.162;2024-02-14T11:01:38;1.02;;;0.32;;
43809;SDS011;29440;48.208;11.162;2024-02-14T11:04:06;1.60;;;0.40;;
43809;SDS011;29440;48.208;11.162;2024-02-14T11:06:43;1.05;;;0.30;;
43809;SDS011;29440;48.208;11.162;2024-02-14T11:09:12;2.35;;;0.47;;
43809;SDS011;29440;48.208;11.162;2024-02-14T11:11:40;1.92;;;0.30;;
43809;SDS011;29440;48.208;11.162;2024-02-14T11:14:09;1.65;;;0.47;;
43809;SDS011;29440;48.208;11.162;2024-02-14T11:16:37;0.77;;;0.38;;
43809;SDS011;29440;48.208;11.162;2024-02-14T11:19:12;2.08;;;0.30;;
43809;SDS011;29440;48.208;11.162;2024-02-14T11:21:42;1.65;;;0.40;;
43809;SDS011;29440;48.208;11.162;2024-02-14T11:24:11;0.63;;;0.30;;
43809;SDS011;29440;48.208;11.162;2024-02-14T11:26:47;0.77;;;0.30;;
43809;SDS011;29440;48.208;11.162;2024-02-14T11:29:14;0.30;;;0.30;;
43809;SDS011;29440;48.208;11.162;2024-02-14T11:31:46;2.53;;;0.40;;
43809;SDS011;29440;48.208;11.162;2024-02-14T11:34:13;0.90;;;0.45;;
43809;SDS011;29440;48.208;11.162;2024-02-14T11:36:43;2.38;;;0.40;;
43809;SDS011;29440;48.208;11.162;2024-02-14T11:39:09;1.15;;;0.40;;
43809;SDS011;29440;48.208;11.162;2024-02-14T11:41:39;0.60;;;0.20;;
43809;SDS011;29440;48.208;11.162;2024-02-14T11:44:13;0.38;;;0.20;;
43809;SDS011;29440;48.208;11.162;2024-02-14T11:46:39;0.45;;;0.30;;
43809;SDS011;29440;48.208;11.162;2024-02-14T11:49:05;1.75;;;0.30;;
43809;SDS011;29440;48.208;11.162;2024-02-14T11:51:34;1.50;;;0.40;;
43809;SDS011;29440;48.208;11.162;2024-02-14T11:54:03;1.00;;;0.38;;
43809;SDS011;29440;48.208;11.162;2024-02-14T11:56:39;2.03;;;0.40;;
43809;SDS011;29440;48.208;11.162;2024-02-14T11:59:05;0.57;;;0.30;;
43809;SDS011;29440;48.208;11.162;2024-02-14T12:01:32;3.60;;;0.30;;
43809;SDS011;29440;48.208;11.162;2024-02-14T12:04:00;0.88;;;0.32;;
43809;SDS011;29440;48.208;11.162;2024-02-14T12:06:30;1.02;;;0.30;;
43809;SDS011;29440;48.208;11.162;2024-02-14T12:09:08;1.17;;;0.30;;
43809;SDS011;29440;48.208;11.162;2024-02-14T12:11:38;1.17;;;0.30;;
43809;SDS011;29440;48.208;11.162;2024-02-14T12:16:37;1.65;;;0.50;;
43809;SDS011;29440;48.208;11.162;2024-02-14T12:19:09;1.95;;;0.35;;
43809;SDS011;29440;48.208;11.162;2024-02-14T12:21:40;1.40;;;0.40;;
43809;SDS011;29440;48.208;11.162;2024-02-14T12:24:09;0.60;;;0.30;;
43809;SDS011;29440;48.208;11.162;2024-02-14T12:26:35;2.75;;;0.50;;
43809;SDS011;29440;48.208;11.162;2024-02-14T12:29:02;3.25;;;0.50;;
43809;SDS011;29440;48.208;11.162;2024-02-14T12:31:32;1.20;;;0.40;;
43809;SDS011;29440;48.208;11.162;2024-02-14T12:33:58;0.52;;;0.35;;
43809;SDS011;29440;48.208;11.162;2024-02-14T12:36:27;1.90;;;0.70;;
43809;SDS011;29440;48.208;11.162;2024-02-14T12:38:54;1.20;;;0.40;;
43809;SDS011;29440;48.208;11.162;2024-02-14T12:41:20;3.92;;;0.50;;
43809;SDS011;29440;48.208;11.162;2024-02-14T12:43:47;0.50;;;0.38;;
43809;SDS011;29440;48.208;11.162;2024-02-14T12:46:13;1.02;;;0.70;;
43809;SDS011;29440;48.208;11.162;2024-02-14T12:48:39;0.90;;;0.50;;
43809;SDS011;29440;48.208;11.162;2024-02-14T12:51:04;0.77;;;0.38;;
43809;SDS011;29440;48.208;11.162;2024-02-14T12:53:30;2.53;;;0.40;;
43809;SDS011;29440;48.208;11.162;2024-02-14T12:55:56;0.73;;;0.30;;
43809;SDS011;29440;48.208;11.162;2024-02-14T12:58:21;1.17;;;0.50;;
43809;SDS011;29440;48.208;11.162;2024-02-14T13:00:47;0.40;;;0.30;;
43809;SDS011;29440;48.208;11.162;2024-02-14T13:03:13;1.60;;;0.50;;
43809;SDS011;29440;48.208;11.162;2024-02-14T13:05:38;1.30;;;0.60;;
43809;SDS011;29440;48.208;11.162;2024-02-14T13:08:04;0.90;;;0.30;;
43809;SDS011;29440;48.208;11.162;2024-02-14T13:10:30;1.70;;;0.40;;
43809;SDS011;29440;48.208;11.162;2024-02-14T13:12:56;0.93;;;0.40;;
43809;SDS011;29440;48.208;11.162;2024-02-14T13:15:22;1.63;;;0.60;;
43809;SDS011;29440;48.208;11.162;2024-02-14T13:17:48;0.93;;;0.32;;
43809;SDS011;29440;48.208;11.162;2024-02-14T13:20:14;1.83;;;0.40;;
43809;SDS011;29440;48.208;11.162;2024-02-14T13:22:43;0.70;;;0.35;;
43809;SDS011;29440;48.208;11.162;2024-02-14T13:25:08;1.38;;;0.40;;
43809;SDS011;29440;48.208;11.162;2024-02-14T13:27:34;2.60;;;0.50;;
43809;SDS011;29440;48.208;11.162;2024-02-14T13:30:00;1.77;;;0.80;;
43809;SDS011;29440;48.208;11.162;2024-02-14T13:32:26;2.33;;;1.00;;
43809;SDS011;29440;48.208;11.162;2024-02-14T13:34:52;1.88;;;0.80;;
43809;SDS011;29440;48.208;11.162;2024-02-14T13:37:17;1.80;;;0.80;;
43809;SDS011;29440;48.208;11.162;2024-02-14T13:39:44;2.78;;;0.30;;
43809;SDS011;29440;48.208;11.162;2024-02-14T13:42:10;2.95;;;0.40;;
43809;SDS011;29440;48.208;11.162;2024-02-14T13:44:36;0.95;;;0.32;;
43809;SDS011;29440;48.208;11.162;2024-02-14T13:47:01;2.15;;;0.77;;
43809;SDS011;29440;48.208;11.162;2024-02-14T13:49:28;0.95;;;0.60;;
43809;SDS011;29440;48.208;11.162;2024-02-14T13:51:53;1.90;;;0.45;;
43809;SDS011;29440;48.208;11.162;2024-02-14T13:54:19;1.63;;;0.50;;
43809;SDS011;29440;48.208;11.162;2024-02-14T13:56:45;0.65;;;0.38;;
43809;SDS011;29440;48.208;11.162;2024-02-14T14:01:57;1.35;;;0.40;;
43809;SDS011;29440;48.208;11.162;2024-02-14T14:04:22;1.35;;;0.30;;
43809;SDS011;29440;48.208;11.162;2024-02-14T14:06:48;1.00;;;0.40;;
43809;SDS011;29440;48.208;11.162;2024-02-14T14:09:13;2.53;;;1.00;;
43809;SDS011;29440;48.208;11.162;2024-02-14T14:11:39;1.77;;;0.70;;
43809;SDS011;29440;48.208;11.162;2024-02-14T14:14:05;1.40;;;0.50;;
43809;SDS011;29440;48.208;11.162;2024-02-14T14:16:31;2.25;;;0.60;;
43809;SDS011;29440;48.208;11.162;2024-02-14T14:19:00;2.72;;;0.57;;
43809;SDS011;29440;48.208;11.162;2024-02-14T14:21:26;1.33;;;0.40;;
43809;SDS011;29440;48.208;11.162;2024-02-14T14:23:51;0.47;;;0.30;;
43809;SDS011;29440;48.208;11.162;2024-02-14T14:26:17;1.33;;;0.40;;
43809;SDS011;29440;48.208;11.162;2024-02-14T14:28:43;0.35;;;0.30;;
43809;SDS011;29440;48.208;11.162;2024-02-14T14:31:09;1.33;;;0.40;;
43809;SDS011;29440;48.208;11.162;2024-02-14T14:33:36;1.83;;;0.40;;
43809;SDS011;29440;48.208;11.162;2024-02-14T14:36:03;2.03;;;0.38;;
43809;SDS011;29440;48.208;11.162;2024-02-14T14:38:29;1.63;;;0.50;;
43809;SDS011;29440;48.208;11.162;2024-02-14T14:40:55;1.80;;;0.80;;
43809;SDS011;29440;48.208;11.162;2024-02-14T14:43:21;3.55;;;0.90;;
43809;SDS011;29440;48.208;11.162;2024-02-14T14:45:47;1.98;;;0.50;;